PWSweather.com
Personal Weather Stations
Station Observations
TXALLEN104
Watters Crossing, Allen, TX 75013

Watters CrossingAllen, TX 75013

Lat: 33.096, Lon: -96.697

Elevation: 672

Station Type: Davis Vantage Pro2 Plus

http://www.allenweather.com

Latest ConditionsUpdated 1:35:00 PM CST Tuesday, Nov 12, 2019
Currently Today's Max Today's Min Today's Average
Temperature 36.6°F2.6°C 36.6°F2.6°C 21.3°F-5.9°C 26.4°F-3.1°C
Dew Point 16.8°F-8.4°C 18.6°F-7.4°C 12.6°F-10.8°C 15.2°F-9.3°C
Winds 3.0 mph NNW4.8 kmh NNW 6.0 mph -9.7 kmh - - 3.6 mph 5.8 kmh
Wind Gusts 10.0 mph16.1 kmh 15.0 mph24.1 kmh - -
Humidity 44% 70% 44% 63%
Pressure 30.56 in1034.9 mb 30.68 in1038.9 mb 30.56 in1034.9 mb -
Hour Temp Dew Point Humidity Winds Wind Gusts Pressure Precip Precip Rate Daily Precip Total
01:35 PM 36.6°F2.6°C 16.8°F-8.4°C 44% 3.0 mph NNW4.8 kmh NNW 10.0 mph16.1 kmh 30.56 in1034.9 mb 0.00 in0.0 mm 0.00 in0.0 mm 0.00 in0.0 mm
01:30 PM 35.7°F2.1°C 16.0°F-8.9°C 44% 2.0 mph NNW3.2 kmh NNW 9.0 mph14.5 kmh 30.56 in1034.9 mb 0.00 in0.0 mm 0.00 in0.0 mm 0.00 in0.0 mm
01:25 PM 35.5°F1.9°C 15.8°F-9.0°C 44% 3.0 mph NW4.8 kmh NW 9.0 mph14.5 kmh 30.57 in1035.2 mb 0.00 in0.0 mm 0.00 in0.0 mm 0.00 in0.0 mm
01:20 PM 35.5°F1.9°C 16.3°F-8.7°C 45% 4.0 mph NNW6.4 kmh NNW 10.0 mph16.1 kmh 30.57 in1035.2 mb 0.00 in0.0 mm 0.00 in0.0 mm 0.00 in0.0 mm
01:15 PM 35.3°F1.8°C 16.6°F-8.6°C 46% 2.0 mph NNW3.2 kmh NNW 5.0 mph8.0 kmh 30.57 in1035.2 mb 0.00 in0.0 mm 0.00 in0.0 mm 0.00 in0.0 mm
01:10 PM 35.6°F2.0°C 16.4°F-8.7°C 45% 6.0 mph NNW9.7 kmh NNW 13.0 mph20.9 kmh 30.57 in1035.2 mb 0.00 in0.0 mm 0.00 in0.0 mm 0.00 in0.0 mm
01:05 PM 35.2°F1.8°C 16.5°F-8.6°C 46% 5.0 mph NW8.0 kmh NW 10.0 mph16.1 kmh 30.57 in1035.2 mb 0.00 in0.0 mm 0.00 in0.0 mm 0.00 in0.0 mm
01:00 PM 35.0°F1.7°C 16.8°F-8.4°C 47% 4.0 mph NNW6.4 kmh NNW 12.0 mph19.3 kmh 30.58 in1035.6 mb 0.00 in0.0 mm 0.00 in0.0 mm 0.00 in0.0 mm
12:55 PM 34.9°F1.6°C 16.7°F-8.5°C 47% 4.0 mph NW6.4 kmh NW 12.0 mph19.3 kmh 30.58 in1035.6 mb 0.00 in0.0 mm 0.00 in0.0 mm 0.00 in0.0 mm
12:50 PM 34.8°F1.6°C 16.6°F-8.6°C 47% 5.0 mph NNW8.0 kmh NNW 15.0 mph24.1 kmh 30.59 in1035.9 mb 0.00 in0.0 mm 0.00 in0.0 mm 0.00 in0.0 mm
12:45 PM 34.8°F1.6°C 16.6°F-8.6°C 47% 5.0 mph NW8.0 kmh NW 13.0 mph20.9 kmh 30.59 in1035.9 mb 0.00 in0.0 mm 0.00 in0.0 mm 0.00 in0.0 mm
12:40 PM 34.3°F1.3°C 16.7°F-8.5°C 48% 4.0 mph NNW6.4 kmh NNW 10.0 mph16.1 kmh 30.60 in1036.2 mb 0.00 in0.0 mm 0.00 in0.0 mm 0.00 in0.0 mm
12:35 PM 34.2°F1.2°C 16.6°F-8.6°C 48% 4.0 mph NNW6.4 kmh NNW 12.0 mph19.3 kmh 30.61 in1036.6 mb 0.00 in0.0 mm 0.00 in0.0 mm 0.00 in0.0 mm
12:30 PM 34.0°F1.1°C 16.9°F-8.4°C 49% 4.0 mph 6.4 kmh 14.0 mph22.5 kmh 30.61 in1036.6 mb 0.00 in0.0 mm 0.00 in0.0 mm 0.00 in0.0 mm
12:25 PM 33.5°F0.8°C 16.4°F-8.7°C 49% 5.0 mph 8.0 kmh 13.0 mph20.9 kmh 30.62 in1036.9 mb 0.00 in0.0 mm 0.00 in0.0 mm 0.00 in0.0 mm
12:20 PM 33.7°F0.9°C 17.5°F-8.1°C 51% 4.0 mph 6.4 kmh 12.0 mph19.3 kmh 30.61 in1036.6 mb 0.00 in0.0 mm 0.00 in0.0 mm 0.00 in0.0 mm
12:15 PM 33.2°F0.7°C 16.1°F-8.8°C 49% 5.0 mph 8.0 kmh 12.0 mph19.3 kmh 30.62 in1036.9 mb 0.00 in0.0 mm 0.00 in0.0 mm 0.00 in0.0 mm
12:10 PM 33.5°F0.8°C 16.9°F-8.4°C 50% 3.0 mph NNW4.8 kmh NNW 9.0 mph14.5 kmh 30.62 in1036.9 mb 0.00 in0.0 mm 0.00 in0.0 mm 0.00 in0.0 mm
12:05 PM 33.7°F0.9°C 17.5°F-8.1°C 51% 3.0 mph NW4.8 kmh NW 9.0 mph14.5 kmh 30.63 in1037.3 mb 0.00 in0.0 mm 0.00 in0.0 mm 0.00 in0.0 mm
12:00 PM 32.5°F0.3°C 16.4°F-8.7°C 51% 4.0 mph NNW6.4 kmh NNW 9.0 mph14.5 kmh 30.63 in1037.3 mb 0.00 in0.0 mm 0.00 in0.0 mm 0.00 in0.0 mm
11:55 AM 32.6°F0.3°C 16.5°F-8.6°C 51% 4.0 mph NNW6.4 kmh NNW 10.0 mph16.1 kmh 30.64 in1037.6 mb 0.00 in0.0 mm 0.00 in0.0 mm 0.00 in0.0 mm
11:50 AM 32.3°F0.2°C 16.2°F-8.8°C 51% 3.0 mph NNW4.8 kmh NNW 6.0 mph9.7 kmh 30.64 in1037.6 mb 0.00 in0.0 mm 0.00 in0.0 mm 0.00 in0.0 mm
11:45 AM 32.1°F0.1°C 16.9°F-8.4°C 53% 5.0 mph NW8.0 kmh NW 13.0 mph20.9 kmh 30.65 in1037.9 mb 0.00 in0.0 mm 0.00 in0.0 mm 0.00 in0.0 mm
11:40 AM 31.8°F-0.1°C 15.8°F-9.0°C 51% 4.0 mph NNW6.4 kmh NNW 10.0 mph16.1 kmh 30.65 in1037.9 mb 0.00 in0.0 mm 0.00 in0.0 mm 0.00 in0.0 mm
11:35 AM 32.0°F0.0°C 16.4°F-8.7°C 52% 4.0 mph NNW6.4 kmh NNW 10.0 mph16.1 kmh 30.65 in1037.9 mb 0.00 in0.0 mm 0.00 in0.0 mm 0.00 in0.0 mm
11:30 AM 31.4°F-0.3°C 16.3°F-8.7°C 53% 4.0 mph NW6.4 kmh NW 11.0 mph17.7 kmh 30.66 in1038.3 mb 0.00 in0.0 mm 0.00 in0.0 mm 0.00 in0.0 mm
11:25 AM 30.8°F-0.7°C 15.7°F-9.1°C 53% 4.0 mph NNW6.4 kmh NNW 13.0 mph20.9 kmh 30.66 in1038.3 mb 0.00 in0.0 mm 0.00 in0.0 mm 0.00 in0.0 mm
11:20 AM 31.1°F-0.5°C 15.6°F-9.1°C 52% 4.0 mph NW6.4 kmh NW 11.0 mph17.7 kmh 30.66 in1038.3 mb 0.00 in0.0 mm 0.00 in0.0 mm 0.00 in0.0 mm
11:15 AM 30.9°F-0.6°C 16.2°F-8.8°C 54% 3.0 mph 4.8 kmh 11.0 mph17.7 kmh 30.66 in1038.3 mb 0.00 in0.0 mm 0.00 in0.0 mm 0.00 in0.0 mm
11:10 AM 30.3°F-0.9°C 15.2°F-9.3°C 53% 5.0 mph NW8.0 kmh NW 10.0 mph16.1 kmh 30.66 in1038.3 mb 0.00 in0.0 mm 0.00 in0.0 mm 0.00 in0.0 mm
11:05 AM 30.5°F-0.8°C 15.4°F-9.2°C 53% 3.0 mph NNW4.8 kmh NNW 13.0 mph20.9 kmh 30.67 in1038.6 mb 0.00 in0.0 mm 0.00 in0.0 mm 0.00 in0.0 mm
11:00 AM 30.3°F-0.9°C 15.7°F-9.1°C 54% 3.0 mph NNW4.8 kmh NNW 11.0 mph17.7 kmh 30.67 in1038.6 mb 0.00 in0.0 mm 0.00 in0.0 mm 0.00 in0.0 mm
10:55 AM 30.0°F-1.1°C 15.8°F-9.0°C 55% 4.0 mph NNW6.4 kmh NNW 10.0 mph16.1 kmh 30.67 in1038.6 mb 0.00 in0.0 mm 0.00 in0.0 mm 0.00 in0.0 mm
10:50 AM 29.2°F-1.6°C 15.1°F-9.4°C 55% 6.0 mph NW9.7 kmh NW 11.0 mph17.7 kmh 30.66 in1038.3 mb 0.00 in0.0 mm 0.00 in0.0 mm 0.00 in0.0 mm
10:45 AM 29.2°F-1.6°C 14.2°F-9.9°C 53% 4.0 mph NW6.4 kmh NW 10.0 mph16.1 kmh 30.66 in1038.3 mb 0.00 in0.0 mm 0.00 in0.0 mm 0.00 in0.0 mm
10:40 AM 29.4°F-1.4°C 14.4°F-9.8°C 53% 5.0 mph NNW8.0 kmh NNW 15.0 mph24.1 kmh 30.67 in1038.6 mb 0.00 in0.0 mm 0.00 in0.0 mm 0.00 in0.0 mm
10:35 AM 29.4°F-1.4°C 14.8°F-9.6°C 54% 3.0 mph NW4.8 kmh NW 9.0 mph14.5 kmh 30.68 in1038.9 mb 0.00 in0.0 mm 0.00 in0.0 mm 0.00 in0.0 mm
10:30 AM 28.7°F-1.8°C 15.0°F-9.4°C 56% 4.0 mph NNW6.4 kmh NNW 10.0 mph16.1 kmh 30.68 in1038.9 mb 0.00 in0.0 mm 0.00 in0.0 mm 0.00 in0.0 mm
10:25 AM 28.1°F-2.2°C 14.4°F-9.8°C 56% 4.0 mph NW6.4 kmh NW 11.0 mph17.7 kmh 30.67 in1038.6 mb 0.00 in0.0 mm 0.00 in0.0 mm 0.00 in0.0 mm
10:20 AM 28.2°F-2.1°C 15.7°F-9.1°C 59% 3.0 mph NW4.8 kmh NW 8.0 mph12.9 kmh 30.67 in1038.6 mb 0.00 in0.0 mm 0.00 in0.0 mm 0.00 in0.0 mm
10:15 AM 27.6°F-2.4°C 14.4°F-9.8°C 57% 5.0 mph NW8.0 kmh NW 11.0 mph17.7 kmh 30.68 in1038.9 mb 0.00 in0.0 mm 0.00 in0.0 mm 0.00 in0.0 mm
10:10 AM 27.7°F-2.4°C 14.5°F-9.7°C 57% 4.0 mph NW6.4 kmh NW 11.0 mph17.7 kmh 30.68 in1038.9 mb 0.00 in0.0 mm 0.00 in0.0 mm 0.00 in0.0 mm
10:00 AM 27.1°F-2.7°C 14.3°F-9.8°C 58% 3.0 mph 4.8 kmh 9.0 mph14.5 kmh 30.68 in1038.9 mb 0.00 in0.0 mm 0.00 in0.0 mm 0.00 in0.0 mm
09:55 AM 26.5°F-3.1°C 13.4°F-10.3°C 57% 4.0 mph NNW6.4 kmh NNW 12.0 mph19.3 kmh 30.68 in1038.9 mb 0.00 in0.0 mm 0.00 in0.0 mm 0.00 in0.0 mm
09:50 AM 26.5°F-3.1°C 13.4°F-10.3°C 57% 5.0 mph NNW8.0 kmh NNW 12.0 mph19.3 kmh 30.68 in1038.9 mb 0.00 in0.0 mm 0.00 in0.0 mm 0.00 in0.0 mm
09:45 AM 26.7°F-2.9°C 14.3°F-9.8°C 59% 1.0 mph NNW1.6 kmh NNW 4.0 mph6.4 kmh 30.68 in1038.9 mb 0.00 in0.0 mm 0.00 in0.0 mm 0.00 in0.0 mm
09:40 AM 26.3°F-3.2°C 13.9°F-10.1°C 59% 3.0 mph NNW4.8 kmh NNW 9.0 mph14.5 kmh 30.67 in1038.6 mb 0.00 in0.0 mm 0.00 in0.0 mm 0.00 in0.0 mm
09:35 AM 25.7°F-3.5°C 13.4°F-10.3°C 59% 4.0 mph 6.4 kmh 11.0 mph17.7 kmh 30.67 in1038.6 mb 0.00 in0.0 mm 0.00 in0.0 mm 0.00 in0.0 mm
09:30 AM 25.6°F-3.6°C 13.3°F-10.4°C 59% 4.0 mph WNW6.4 kmh WNW 11.0 mph17.7 kmh 30.67 in1038.6 mb 0.00 in0.0 mm 0.00 in0.0 mm 0.00 in0.0 mm
09:25 AM 25.6°F-3.6°C 13.7°F-10.2°C 60% 4.0 mph NNW6.4 kmh NNW 9.0 mph14.5 kmh 30.67 in1038.6 mb 0.00 in0.0 mm 0.00 in0.0 mm 0.00 in0.0 mm
09:20 AM 25.9°F-3.4°C 13.6°F-10.2°C 59% 3.0 mph NNW4.8 kmh NNW 9.0 mph14.5 kmh 30.67 in1038.6 mb 0.00 in0.0 mm 0.00 in0.0 mm 0.00 in0.0 mm
09:15 AM 25.6°F-3.6°C 13.7°F-10.2°C 60% 2.0 mph NNW3.2 kmh NNW 8.0 mph12.9 kmh 30.67 in1038.6 mb 0.00 in0.0 mm 0.00 in0.0 mm 0.00 in0.0 mm
09:10 AM 24.9°F-3.9°C 13.4°F-10.3°C 61% 3.0 mph NNW4.8 kmh NNW 9.0 mph14.5 kmh 30.67 in1038.6 mb 0.00 in0.0 mm 0.00 in0.0 mm 0.00 in0.0 mm
09:05 AM 24.8°F-4.0°C 13.7°F-10.2°C 62% 4.0 mph NNW6.4 kmh NNW 13.0 mph20.9 kmh 30.67 in1038.6 mb 0.00 in0.0 mm 0.00 in0.0 mm 0.00 in0.0 mm
09:00 AM 24.7°F-4.1°C 13.6°F-10.2°C 62% 2.0 mph NW3.2 kmh NW 8.0 mph12.9 kmh 30.67 in1038.6 mb 0.00 in0.0 mm 0.00 in0.0 mm 0.00 in0.0 mm
08:55 AM 24.1°F-4.4°C 13.4°F-10.3°C 63% 3.0 mph NW4.8 kmh NW 8.0 mph12.9 kmh 30.67 in1038.6 mb 0.00 in0.0 mm 0.00 in0.0 mm 0.00 in0.0 mm
08:50 AM 23.8°F-4.6°C 13.1°F-10.5°C 63% 5.0 mph NNW8.0 kmh NNW 14.0 mph22.5 kmh 30.67 in1038.6 mb 0.00 in0.0 mm 0.00 in0.0 mm 0.00 in0.0 mm
08:45 AM 23.8°F-4.6°C 13.1°F-10.5°C 63% 4.0 mph NNW6.4 kmh NNW 13.0 mph20.9 kmh 30.67 in1038.6 mb 0.00 in0.0 mm 0.00 in0.0 mm 0.00 in0.0 mm
08:40 AM 23.8°F-4.6°C 13.1°F-10.5°C 63% 4.0 mph NNE6.4 kmh NNE 11.0 mph17.7 kmh 30.67 in1038.6 mb 0.00 in0.0 mm 0.00 in0.0 mm 0.00 in0.0 mm
08:35 AM 23.9°F-4.5°C 13.5°F-10.3°C 64% 3.0 mph NNW4.8 kmh NNW 10.0 mph16.1 kmh 30.67 in1038.6 mb 0.00 in0.0 mm 0.00 in0.0 mm 0.00 in0.0 mm
08:30 AM 23.4°F-4.8°C 13.4°F-10.3°C 65% 3.0 mph NW4.8 kmh NW 11.0 mph17.7 kmh 30.66 in1038.3 mb 0.00 in0.0 mm 0.00 in0.0 mm 0.00 in0.0 mm
08:25 AM 23.2°F-4.9°C 13.2°F-10.4°C 65% 4.0 mph NNW6.4 kmh NNW 9.0 mph14.5 kmh 30.66 in1038.3 mb 0.00 in0.0 mm 0.00 in0.0 mm 0.00 in0.0 mm
08:20 AM 22.9°F-5.1°C 13.3°F-10.4°C 66% 3.0 mph NNW4.8 kmh NNW 8.0 mph12.9 kmh 30.66 in1038.3 mb 0.00 in0.0 mm 0.00 in0.0 mm 0.00 in0.0 mm
08:15 AM 22.7°F-5.2°C 13.4°F-10.3°C 67% 4.0 mph 6.4 kmh 11.0 mph17.7 kmh 30.66 in1038.3 mb 0.00 in0.0 mm 0.00 in0.0 mm 0.00 in0.0 mm
08:10 AM 22.4°F-5.3°C 13.1°F-10.5°C 67% 5.0 mph NW8.0 kmh NW 12.0 mph19.3 kmh 30.66 in1038.3 mb 0.00 in0.0 mm 0.00 in0.0 mm 0.00 in0.0 mm
08:05 AM 22.2°F-5.4°C 12.9°F-10.6°C 67% 4.0 mph NNW6.4 kmh NNW 10.0 mph16.1 kmh 30.66 in1038.3 mb 0.00 in0.0 mm 0.00 in0.0 mm 0.00 in0.0 mm
08:00 AM 22.2°F-5.4°C 12.9°F-10.6°C 67% 4.0 mph NNW6.4 kmh NNW 12.0 mph19.3 kmh 30.66 in1038.3 mb 0.00 in0.0 mm 0.00 in0.0 mm 0.00 in0.0 mm
07:55 AM 22.2°F-5.4°C 13.3°F-10.4°C 68% 2.0 mph NNW3.2 kmh NNW 5.0 mph8.0 kmh 30.66 in1038.3 mb 0.00 in0.0 mm 0.00 in0.0 mm 0.00 in0.0 mm
07:50 AM 21.8°F-5.7°C 12.9°F-10.6°C 68% 4.0 mph NNW6.4 kmh NNW 11.0 mph17.7 kmh 30.67 in1038.6 mb 0.00 in0.0 mm 0.00 in0.0 mm 0.00 in0.0 mm
07:45 AM 21.7°F-5.7°C 12.8°F-10.7°C 68% 3.0 mph NNW4.8 kmh NNW 12.0 mph19.3 kmh 30.67 in1038.6 mb 0.00 in0.0 mm 0.00 in0.0 mm 0.00 in0.0 mm
07:40 AM 21.5°F-5.8°C 12.6°F-10.8°C 68% 5.0 mph NNW8.0 kmh NNW 11.0 mph17.7 kmh 30.67 in1038.6 mb 0.00 in0.0 mm 0.00 in0.0 mm 0.00 in0.0 mm
07:35 AM 21.5°F-5.8°C 12.6°F-10.8°C 68% 4.0 mph NNW6.4 kmh NNW 10.0 mph16.1 kmh 30.66 in1038.3 mb 0.00 in0.0 mm 0.00 in0.0 mm 0.00 in0.0 mm
07:30 AM 21.4°F-5.9°C 12.8°F-10.7°C 69% 3.0 mph NW4.8 kmh NW 12.0 mph19.3 kmh 30.67 in1038.6 mb 0.00 in0.0 mm 0.00 in0.0 mm 0.00 in0.0 mm
07:25 AM 21.3°F-5.9°C 12.7°F-10.7°C 69% 3.0 mph NNW4.8 kmh NNW 12.0 mph19.3 kmh 30.66 in1038.3 mb 0.00 in0.0 mm 0.00 in0.0 mm 0.00 in0.0 mm
07:20 AM 21.3°F-5.9°C 12.7°F-10.7°C 69% 5.0 mph NW8.0 kmh NW 13.0 mph20.9 kmh 30.66 in1038.3 mb 0.00 in0.0 mm 0.00 in0.0 mm 0.00 in0.0 mm
07:15 AM 21.3°F-5.9°C 12.7°F-10.7°C 69% 6.0 mph NW9.7 kmh NW 15.0 mph24.1 kmh 30.66 in1038.3 mb 0.00 in0.0 mm 0.00 in0.0 mm 0.00 in0.0 mm
07:10 AM 21.3°F-5.9°C 12.7°F-10.7°C 69% 3.0 mph 4.8 kmh 8.0 mph12.9 kmh 30.66 in1038.3 mb 0.00 in0.0 mm 0.00 in0.0 mm 0.00 in0.0 mm
07:05 AM 21.3°F-5.9°C 12.7°F-10.7°C 69% 5.0 mph NNW8.0 kmh NNW 11.0 mph17.7 kmh 30.66 in1038.3 mb 0.00 in0.0 mm 0.00 in0.0 mm 0.00 in0.0 mm
07:00 AM 21.4°F-5.9°C 12.8°F-10.7°C 69% 4.0 mph NW6.4 kmh NW 10.0 mph16.1 kmh 30.66 in1038.3 mb 0.00 in0.0 mm 0.00 in0.0 mm 0.00 in0.0 mm
06:55 AM 21.5°F-5.8°C 12.9°F-10.6°C 69% 4.0 mph NW6.4 kmh NW 12.0 mph19.3 kmh 30.66 in1038.3 mb 0.00 in0.0 mm 0.00 in0.0 mm 0.00 in0.0 mm
06:50 AM 21.5°F-5.8°C 13.3°F-10.4°C 70% 3.0 mph NNW4.8 kmh NNW 8.0 mph12.9 kmh 30.65 in1037.9 mb 0.00 in0.0 mm 0.00 in0.0 mm 0.00 in0.0 mm
06:45 AM 21.5°F-5.8°C 13.3°F-10.4°C 70% 3.0 mph NW4.8 kmh NW 9.0 mph14.5 kmh 30.65 in1037.9 mb 0.00 in0.0 mm 0.00 in0.0 mm 0.00 in0.0 mm
06:40 AM 21.6°F-5.8°C 13.4°F-10.3°C 70% 3.0 mph 4.8 kmh 9.0 mph14.5 kmh 30.64 in1037.6 mb 0.00 in0.0 mm 0.00 in0.0 mm 0.00 in0.0 mm
06:35 AM 21.7°F-5.7°C 13.5°F-10.3°C 70% 3.0 mph NNW4.8 kmh NNW 10.0 mph16.1 kmh 30.65 in1037.9 mb 0.00 in0.0 mm 0.00 in0.0 mm 0.00 in0.0 mm
06:30 AM 21.7°F-5.7°C 13.5°F-10.3°C 70% 4.0 mph WNW6.4 kmh WNW 11.0 mph17.7 kmh 30.64 in1037.6 mb 0.00 in0.0 mm 0.00 in0.0 mm 0.00 in0.0 mm
06:25 AM 21.8°F-5.7°C 13.5°F-10.3°C 70% 5.0 mph NNW8.0 kmh NNW 12.0 mph19.3 kmh 30.64 in1037.6 mb 0.00 in0.0 mm 0.00 in0.0 mm 0.00 in0.0 mm
06:20 AM 21.8°F-5.7°C 13.5°F-10.3°C 70% 4.0 mph NNW6.4 kmh NNW 12.0 mph19.3 kmh 30.64 in1037.6 mb 0.00 in0.0 mm 0.00 in0.0 mm 0.00 in0.0 mm
06:15 AM 21.8°F-5.7°C 13.5°F-10.3°C 70% 5.0 mph NNW8.0 kmh NNW 10.0 mph16.1 kmh 30.64 in1037.6 mb 0.00 in0.0 mm 0.00 in0.0 mm 0.00 in0.0 mm
06:10 AM 21.9°F-5.6°C 13.6°F-10.2°C 70% 3.0 mph WNW4.8 kmh WNW 10.0 mph16.1 kmh 30.64 in1037.6 mb 0.00 in0.0 mm 0.00 in0.0 mm 0.00 in0.0 mm
06:05 AM 22.0°F-5.6°C 13.7°F-10.2°C 70% 3.0 mph NNW4.8 kmh NNW 11.0 mph17.7 kmh 30.64 in1037.6 mb 0.00 in0.0 mm 0.00 in0.0 mm 0.00 in0.0 mm
06:00 AM 22.1°F-5.5°C 13.8°F-10.1°C 70% 4.0 mph NW6.4 kmh NW 11.0 mph17.7 kmh 30.64 in1037.6 mb 0.00 in0.0 mm 0.00 in0.0 mm 0.00 in0.0 mm
05:55 AM 22.1°F-5.5°C 13.8°F-10.1°C 70% 3.0 mph NNW4.8 kmh NNW 10.0 mph16.1 kmh 30.63 in1037.3 mb 0.00 in0.0 mm 0.00 in0.0 mm 0.00 in0.0 mm
05:50 AM 22.1°F-5.5°C 13.8°F-10.1°C 70% 4.0 mph 6.4 kmh 11.0 mph17.7 kmh 30.63 in1037.3 mb 0.00 in0.0 mm 0.00 in0.0 mm 0.00 in0.0 mm
05:45 AM 22.2°F-5.4°C 13.9°F-10.1°C 70% 4.0 mph NNW6.4 kmh NNW 10.0 mph16.1 kmh 30.63 in1037.3 mb 0.00 in0.0 mm 0.00 in0.0 mm 0.00 in0.0 mm
05:40 AM 22.3°F-5.4°C 14.0°F-10.0°C 70% 4.0 mph NNW6.4 kmh NNW 12.0 mph19.3 kmh 30.63 in1037.3 mb 0.00 in0.0 mm 0.00 in0.0 mm 0.00 in0.0 mm
05:35 AM 22.4°F-5.3°C 14.1°F-9.9°C 70% 4.0 mph NNW6.4 kmh NNW 13.0 mph20.9 kmh 30.63 in1037.3 mb 0.00 in0.0 mm 0.00 in0.0 mm 0.00 in0.0 mm
05:30 AM 22.4°F-5.3°C 14.1°F-9.9°C 70% 4.0 mph 6.4 kmh 10.0 mph16.1 kmh 30.63 in1037.3 mb 0.00 in0.0 mm 0.00 in0.0 mm 0.00 in0.0 mm
05:25 AM 22.5°F-5.3°C 14.2°F-9.9°C 70% 4.0 mph NW6.4 kmh NW 9.0 mph14.5 kmh 30.63 in1037.3 mb 0.00 in0.0 mm 0.00 in0.0 mm 0.00 in0.0 mm
05:20 AM 22.5°F-5.3°C 14.2°F-9.9°C 70% 4.0 mph NW6.4 kmh NW 10.0 mph16.1 kmh 30.63 in1037.3 mb 0.00 in0.0 mm 0.00 in0.0 mm 0.00 in0.0 mm
05:15 AM 22.6°F-5.2°C 14.3°F-9.8°C 70% 3.0 mph 4.8 kmh 8.0 mph12.9 kmh 30.63 in1037.3 mb 0.00 in0.0 mm 0.00 in0.0 mm 0.00 in0.0 mm
05:10 AM 22.7°F-5.2°C 14.4°F-9.8°C 70% 4.0 mph NNW6.4 kmh NNW 9.0 mph14.5 kmh 30.63 in1037.3 mb 0.00 in0.0 mm 0.00 in0.0 mm 0.00 in0.0 mm
05:05 AM 22.7°F-5.2°C 14.4°F-9.8°C 70% 4.0 mph NNW6.4 kmh NNW 11.0 mph17.7 kmh 30.62 in1036.9 mb 0.00 in0.0 mm 0.00 in0.0 mm 0.00 in0.0 mm
05:00 AM 22.7°F-5.2°C 14.4°F-9.8°C 70% 3.0 mph NW4.8 kmh NW 8.0 mph12.9 kmh 30.62 in1036.9 mb 0.00 in0.0 mm 0.00 in0.0 mm 0.00 in0.0 mm
04:55 AM 22.9°F-5.1°C 14.6°F-9.7°C 70% 4.0 mph NW6.4 kmh NW 9.0 mph14.5 kmh 30.62 in1036.9 mb 0.00 in0.0 mm 0.00 in0.0 mm 0.00 in0.0 mm
04:50 AM 22.9°F-5.1°C 14.6°F-9.7°C 70% 5.0 mph NW8.0 kmh NW 12.0 mph19.3 kmh 30.62 in1036.9 mb 0.00 in0.0 mm 0.00 in0.0 mm 0.00 in0.0 mm
04:45 AM 23.0°F-5.0°C 14.7°F-9.6°C 70% 3.0 mph NW4.8 kmh NW 10.0 mph16.1 kmh 30.62 in1036.9 mb 0.00 in0.0 mm 0.00 in0.0 mm 0.00 in0.0 mm
04:40 AM 23.0°F-5.0°C 14.4°F-9.8°C 69% 4.0 mph NNW6.4 kmh NNW 11.0 mph17.7 kmh 30.62 in1036.9 mb 0.00 in0.0 mm 0.00 in0.0 mm 0.00 in0.0 mm
04:35 AM 23.1°F-4.9°C 14.5°F-9.7°C 69% 5.0 mph NW8.0 kmh NW 10.0 mph16.1 kmh 30.62 in1036.9 mb 0.00 in0.0 mm 0.00 in0.0 mm 0.00 in0.0 mm
04:30 AM 23.1°F-4.9°C 14.8°F-9.6°C 70% 3.0 mph NW4.8 kmh NW 8.0 mph12.9 kmh 30.62 in1036.9 mb 0.00 in0.0 mm 0.00 in0.0 mm 0.00 in0.0 mm
04:25 AM 23.3°F-4.8°C 15.0°F-9.4°C 70% 3.0 mph NNW4.8 kmh NNW 8.0 mph12.9 kmh 30.62 in1036.9 mb 0.00 in0.0 mm 0.00 in0.0 mm 0.00 in0.0 mm
04:20 AM 23.3°F-4.8°C 15.0°F-9.4°C 70% 4.0 mph NNW6.4 kmh NNW 10.0 mph16.1 kmh 30.62 in1036.9 mb 0.00 in0.0 mm 0.00 in0.0 mm 0.00 in0.0 mm
04:15 AM 23.4°F-4.8°C 15.1°F-9.4°C 70% 4.0 mph NNW6.4 kmh NNW 11.0 mph17.7 kmh 30.62 in1036.9 mb 0.00 in0.0 mm 0.00 in0.0 mm 0.00 in0.0 mm
04:10 AM 23.5°F-4.7°C 15.2°F-9.3°C 70% 3.0 mph NNW4.8 kmh NNW 9.0 mph14.5 kmh 30.61 in1036.6 mb 0.00 in0.0 mm 0.00 in0.0 mm 0.00 in0.0 mm
04:05 AM 23.6°F-4.7°C 15.3°F-9.3°C 70% 3.0 mph 4.8 kmh 8.0 mph12.9 kmh 30.61 in1036.6 mb 0.00 in0.0 mm 0.00 in0.0 mm 0.00 in0.0 mm
04:00 AM 23.7°F-4.6°C 15.4°F-9.2°C 70% 3.0 mph NNW4.8 kmh NNW 5.0 mph8.0 kmh 30.61 in1036.6 mb 0.00 in0.0 mm 0.00 in0.0 mm 0.00 in0.0 mm
03:55 AM 23.9°F-4.5°C 15.6°F-9.1°C 70% 3.0 mph NNW4.8 kmh NNW 8.0 mph12.9 kmh 30.61 in1036.6 mb 0.00 in0.0 mm 0.00 in0.0 mm 0.00 in0.0 mm
03:50 AM 23.9°F-4.5°C 15.6°F-9.1°C 70% 3.0 mph NW4.8 kmh NW 9.0 mph14.5 kmh 30.61 in1036.6 mb 0.00 in0.0 mm 0.00 in0.0 mm 0.00 in0.0 mm
03:45 AM 24.1°F-4.4°C 15.8°F-9.0°C 70% 2.0 mph NNW3.2 kmh NNW 6.0 mph9.7 kmh 30.60 in1036.2 mb 0.00 in0.0 mm 0.00 in0.0 mm 0.00 in0.0 mm
03:40 AM 24.1°F-4.4°C 15.8°F-9.0°C 70% 3.0 mph NNW4.8 kmh NNW 7.0 mph11.3 kmh 30.60 in1036.2 mb 0.00 in0.0 mm 0.00 in0.0 mm 0.00 in0.0 mm
03:35 AM 24.2°F-4.3°C 15.9°F-8.9°C 70% 3.0 mph NNW4.8 kmh NNW 9.0 mph14.5 kmh 30.60 in1036.2 mb 0.00 in0.0 mm 0.00 in0.0 mm 0.00 in0.0 mm
03:30 AM 24.3°F-4.3°C 15.6°F-9.1°C 69% 3.0 mph NNW4.8 kmh NNW 9.0 mph14.5 kmh 30.60 in1036.2 mb 0.00 in0.0 mm 0.00 in0.0 mm 0.00 in0.0 mm
03:25 AM 24.4°F-4.2°C 15.7°F-9.1°C 69% 3.0 mph 4.8 kmh 9.0 mph14.5 kmh 30.60 in1036.2 mb 0.00 in0.0 mm 0.00 in0.0 mm 0.00 in0.0 mm
03:20 AM 24.5°F-4.2°C 15.8°F-9.0°C 69% 2.0 mph 3.2 kmh 10.0 mph16.1 kmh 30.60 in1036.2 mb 0.00 in0.0 mm 0.00 in0.0 mm 0.00 in0.0 mm
03:15 AM 24.6°F-4.1°C 15.9°F-8.9°C 69% 3.0 mph NW4.8 kmh NW 8.0 mph12.9 kmh 30.60 in1036.2 mb 0.00 in0.0 mm 0.00 in0.0 mm 0.00 in0.0 mm
03:10 AM 24.8°F-4.0°C 16.1°F-8.8°C 69% 3.0 mph NNW4.8 kmh NNW 9.0 mph14.5 kmh 30.60 in1036.2 mb 0.00 in0.0 mm 0.00 in0.0 mm 0.00 in0.0 mm
03:05 AM 24.9°F-3.9°C 16.2°F-8.8°C 69% 4.0 mph NW6.4 kmh NW 8.0 mph12.9 kmh 30.60 in1036.2 mb 0.00 in0.0 mm 0.00 in0.0 mm 0.00 in0.0 mm
03:00 AM 25.0°F-3.9°C 16.3°F-8.7°C 69% 3.0 mph NNW4.8 kmh NNW 10.0 mph16.1 kmh 30.60 in1036.2 mb 0.00 in0.0 mm 0.00 in0.0 mm 0.00 in0.0 mm
02:55 AM 25.1°F-3.8°C 16.4°F-8.7°C 69% 4.0 mph NW6.4 kmh NW 7.0 mph11.3 kmh 30.59 in1035.9 mb 0.00 in0.0 mm 0.00 in0.0 mm 0.00 in0.0 mm
02:50 AM 25.3°F-3.7°C 16.6°F-8.6°C 69% 3.0 mph NW4.8 kmh NW 8.0 mph12.9 kmh 30.59 in1035.9 mb 0.00 in0.0 mm 0.00 in0.0 mm 0.00 in0.0 mm
02:45 AM 25.4°F-3.7°C 16.7°F-8.5°C 69% 3.0 mph NNW4.8 kmh NNW 10.0 mph16.1 kmh 30.59 in1035.9 mb 0.00 in0.0 mm 0.00 in0.0 mm 0.00 in0.0 mm
02:40 AM 25.5°F-3.6°C 16.4°F-8.7°C 68% 4.0 mph NNW6.4 kmh NNW 12.0 mph19.3 kmh 30.58 in1035.6 mb 0.00 in0.0 mm 0.00 in0.0 mm 0.00 in0.0 mm
02:35 AM 25.6°F-3.6°C 16.5°F-8.6°C 68% 3.0 mph NNW4.8 kmh NNW 8.0 mph12.9 kmh 30.59 in1035.9 mb 0.00 in0.0 mm 0.00 in0.0 mm 0.00 in0.0 mm
02:30 AM 25.8°F-3.4°C 16.7°F-8.5°C 68% 4.0 mph NW6.4 kmh NW 10.0 mph16.1 kmh 30.58 in1035.6 mb 0.00 in0.0 mm 0.00 in0.0 mm 0.00 in0.0 mm
02:25 AM 25.9°F-3.4°C 16.8°F-8.4°C 68% 4.0 mph NNW6.4 kmh NNW 12.0 mph19.3 kmh 30.58 in1035.6 mb 0.00 in0.0 mm 0.00 in0.0 mm 0.00 in0.0 mm
02:20 AM 26.0°F-3.3°C 16.9°F-8.4°C 68% 4.0 mph NNW6.4 kmh NNW 11.0 mph17.7 kmh 30.58 in1035.6 mb 0.00 in0.0 mm 0.00 in0.0 mm 0.00 in0.0 mm
02:15 AM 26.2°F-3.2°C 17.1°F-8.3°C 68% 4.0 mph NNW6.4 kmh NNW 10.0 mph16.1 kmh 30.59 in1035.9 mb 0.00 in0.0 mm 0.00 in0.0 mm 0.00 in0.0 mm
02:10 AM 26.3°F-3.2°C 17.2°F-8.2°C 68% 3.0 mph NNW4.8 kmh NNW 9.0 mph14.5 kmh 30.59 in1035.9 mb 0.00 in0.0 mm 0.00 in0.0 mm 0.00 in0.0 mm
02:05 AM 26.5°F-3.1°C 17.4°F-8.1°C 68% 3.0 mph NW4.8 kmh NW 9.0 mph14.5 kmh 30.59 in1035.9 mb 0.00 in0.0 mm 0.00 in0.0 mm 0.00 in0.0 mm
02:00 AM 26.5°F-3.1°C 17.0°F-8.3°C 67% 4.0 mph NW6.4 kmh NW 11.0 mph17.7 kmh 30.59 in1035.9 mb 0.00 in0.0 mm 0.00 in0.0 mm 0.00 in0.0 mm
01:55 AM 26.6°F-3.0°C 17.1°F-8.3°C 67% 3.0 mph NW4.8 kmh NW 11.0 mph17.7 kmh 30.59 in1035.9 mb 0.00 in0.0 mm 0.00 in0.0 mm 0.00 in0.0 mm
01:50 AM 26.7°F-2.9°C 17.2°F-8.2°C 67% 4.0 mph NNW6.4 kmh NNW 13.0 mph20.9 kmh 30.58 in1035.6 mb 0.00 in0.0 mm 0.00 in0.0 mm 0.00 in0.0 mm
01:45 AM 26.8°F-2.9°C 17.3°F-8.2°C 67% 4.0 mph NNW6.4 kmh NNW 12.0 mph19.3 kmh 30.58 in1035.6 mb 0.00 in0.0 mm 0.00 in0.0 mm 0.00 in0.0 mm
01:40 AM 26.9°F-2.8°C 17.4°F-8.1°C 67% 4.0 mph 6.4 kmh 11.0 mph17.7 kmh 30.58 in1035.6 mb 0.00 in0.0 mm 0.00 in0.0 mm 0.00 in0.0 mm
01:35 AM 26.9°F-2.8°C 17.4°F-8.1°C 67% 2.0 mph NNE3.2 kmh NNE 6.0 mph9.7 kmh 30.58 in1035.6 mb 0.00 in0.0 mm 0.00 in0.0 mm 0.00 in0.0 mm
01:30 AM 26.9°F-2.8°C 17.1°F-8.3°C 66% 3.0 mph NNW4.8 kmh NNW 8.0 mph12.9 kmh 30.58 in1035.6 mb 0.00 in0.0 mm 0.00 in0.0 mm 0.00 in0.0 mm
01:25 AM 26.9°F-2.8°C 17.1°F-8.3°C 66% 2.0 mph NNW3.2 kmh NNW 4.0 mph6.4 kmh 30.58 in1035.6 mb 0.00 in0.0 mm 0.00 in0.0 mm 0.00 in0.0 mm
01:20 AM 27.0°F-2.8°C 16.8°F-8.4°C 65% 3.0 mph NNW4.8 kmh NNW 9.0 mph14.5 kmh 30.57 in1035.2 mb 0.00 in0.0 mm 0.00 in0.0 mm 0.00 in0.0 mm
01:15 AM 27.1°F-2.7°C 16.9°F-8.4°C 65% 4.0 mph 6.4 kmh 10.0 mph16.1 kmh 30.57 in1035.2 mb 0.00 in0.0 mm 0.00 in0.0 mm 0.00 in0.0 mm
01:10 AM 27.2°F-2.7°C 17.0°F-8.3°C 65% 4.0 mph NNW6.4 kmh NNW 11.0 mph17.7 kmh 30.57 in1035.2 mb 0.00 in0.0 mm 0.00 in0.0 mm 0.00 in0.0 mm
01:05 AM 27.3°F-2.6°C 17.1°F-8.3°C 65% 4.0 mph NNW6.4 kmh NNW 9.0 mph14.5 kmh 30.57 in1035.2 mb 0.00 in0.0 mm 0.00 in0.0 mm 0.00 in0.0 mm
01:00 AM 27.4°F-2.6°C 17.2°F-8.2°C 65% 4.0 mph NNW6.4 kmh NNW 11.0 mph17.7 kmh 30.57 in1035.2 mb 0.00 in0.0 mm 0.00 in0.0 mm 0.00 in0.0 mm
12:55 AM 27.5°F-2.5°C 16.9°F-8.4°C 64% 3.0 mph NW4.8 kmh NW 10.0 mph16.1 kmh 30.57 in1035.2 mb 0.00 in0.0 mm 0.00 in0.0 mm 0.00 in0.0 mm
12:50 AM 27.6°F-2.4°C 17.0°F-8.3°C 64% 3.0 mph NNW4.8 kmh NNW 9.0 mph14.5 kmh 30.57 in1035.2 mb 0.00 in0.0 mm 0.00 in0.0 mm 0.00 in0.0 mm
12:45 AM 27.7°F-2.4°C 17.1°F-8.3°C 64% 3.0 mph 4.8 kmh 7.0 mph11.3 kmh 30.57 in1035.2 mb 0.00 in0.0 mm 0.00 in0.0 mm 0.00 in0.0 mm
12:40 AM 27.7°F-2.4°C 17.1°F-8.3°C 64% 4.0 mph NW6.4 kmh NW 14.0 mph22.5 kmh 30.57 in1035.2 mb 0.00 in0.0 mm 0.00 in0.0 mm 0.00 in0.0 mm
12:35 AM 27.9°F-2.3°C 17.7°F-7.9°C 65% 4.0 mph NNW6.4 kmh NNW 11.0 mph17.7 kmh 30.57 in1035.2 mb 0.00 in0.0 mm 0.00 in0.0 mm 0.00 in0.0 mm
12:30 AM 28.1°F-2.2°C 18.2°F-7.7°C 66% 3.0 mph NNW4.8 kmh NNW 9.0 mph14.5 kmh 30.57 in1035.2 mb 0.00 in0.0 mm 0.00 in0.0 mm 0.00 in0.0 mm
12:25 AM 28.2°F-2.1°C 18.3°F-7.6°C 66% 3.0 mph NNW4.8 kmh NNW 8.0 mph12.9 kmh 30.57 in1035.2 mb 0.00 in0.0 mm 0.00 in0.0 mm 0.00 in0.0 mm
12:20 AM 28.3°F-2.1°C 18.4°F-7.6°C 66% 3.0 mph NNW4.8 kmh NNW 8.0 mph12.9 kmh 30.57 in1035.2 mb 0.00 in0.0 mm 0.00 in0.0 mm 0.00 in0.0 mm
12:15 AM 28.3°F-2.1°C 18.4°F-7.6°C 66% 2.0 mph 3.2 kmh 6.0 mph9.7 kmh 30.57 in1035.2 mb 0.00 in0.0 mm 0.00 in0.0 mm 0.00 in0.0 mm
12:10 AM 28.5°F-1.9°C 18.6°F-7.4°C 66% 2.0 mph 3.2 kmh 6.0 mph9.7 kmh 30.57 in1035.2 mb 0.00 in0.0 mm 0.00 in0.0 mm 0.00 in0.0 mm
12:05 AM 28.5°F-1.9°C 18.6°F-7.4°C 66% 3.0 mph NNW4.8 kmh NNW 8.0 mph12.9 kmh 30.57 in1035.2 mb 0.00 in0.0 mm 0.00 in0.0 mm 0.00 in0.0 mm
12:00 AM 28.5°F-1.9°C 18.6°F-7.4°C 66% 4.0 mph NNW6.4 kmh NNW 11.0 mph17.7 kmh 30.57 in1035.2 mb 0.00 in0.0 mm 0.00 in0.0 mm 0.00 in0.0 mm